sensor_id;sensor_type;location;lat;lon;timestamp;P1;durP1;ratioP1;P2;durP2;ratioP2
47737;SDS011;33502;47.182;27.506;2022-12-17T00:01:13;88.35;;;50.63;;
47737;SDS011;33502;47.182;27.506;2022-12-17T00:03:57;92.00;;;49.28;;
47737;SDS011;33502;47.182;27.506;2022-12-17T00:06:42;87.88;;;48.78;;
47737;SDS011;33502;47.182;27.506;2022-12-17T00:09:26;93.40;;;49.17;;
47737;SDS011;33502;47.182;27.506;2022-12-17T00:12:11;95.15;;;50.92;;
47737;SDS011;33502;47.182;27.506;2022-12-17T00:14:55;95.55;;;48.15;;
47737;SDS011;33502;47.182;27.506;2022-12-17T00:17:40;86.85;;;45.65;;
47737;SDS011;33502;47.182;27.506;2022-12-17T00:20:24;81.32;;;45.30;;
47737;SDS011;33502;47.182;27.506;2022-12-17T00:23:09;71.15;;;41.08;;
47737;SDS011;33502;47.182;27.506;2022-12-17T00:25:54;76.47;;;40.50;;
47737;SDS011;33502;47.182;27.506;2022-12-17T00:28:39;80.43;;;42.33;;
47737;SDS011;33502;47.182;27.506;2022-12-17T00:31:25;77.40;;;40.28;;
47737;SDS011;33502;47.182;27.506;2022-12-17T00:34:11;75.63;;;41.15;;
47737;SDS011;33502;47.182;27.506;2022-12-17T00:36:55;74.90;;;40.38;;
47737;SDS011;33502;47.182;27.506;2022-12-17T00:39:39;75.60;;;40.90;;
47737;SDS011;33502;47.182;27.506;2022-12-17T00:42:26;75.93;;;40.15;;
47737;SDS011;33502;47.182;27.506;2022-12-17T00:45:11;73.57;;;38.50;;
47737;SDS011;33502;47.182;27.506;2022-12-17T00:47:55;73.95;;;38.58;;
47737;SDS011;33502;47.182;27.506;2022-12-17T00:50:40;71.75;;;39.03;;
47737;SDS011;33502;47.182;27.506;2022-12-17T00:53:24;68.72;;;37.08;;
47737;SDS011;33502;47.182;27.506;2022-12-17T00:56:08;64.70;;;36.92;;
47737;SDS011;33502;47.182;27.506;2022-12-17T00:58:52;62.25;;;35.70;;
47737;SDS011;33502;47.182;27.506;2022-12-17T01:01:37;69.35;;;35.97;;
47737;SDS011;33502;47.182;27.506;2022-12-17T01:04:21;62.60;;;34.22;;
47737;SDS011;33502;47.182;27.506;2022-12-17T01:07:06;63.45;;;34.58;;
47737;SDS011;33502;47.182;27.506;2022-12-17T01:09:50;61.65;;;34.55;;
47737;SDS011;33502;47.182;27.506;2022-12-17T01:12:34;62.28;;;35.85;;
47737;SDS011;33502;47.182;27.506;2022-12-17T01:15:19;66.65;;;35.92;;
47737;SDS011;33502;47.182;27.506;2022-12-17T01:18:03;61.10;;;34.70;;
47737;SDS011;33502;47.182;27.506;2022-12-17T01:21:07;61.88;;;34.67;;
47737;SDS011;33502;47.182;27.506;2022-12-17T01:23:52;62.50;;;34.03;;
47737;SDS011;33502;47.182;27.506;2022-12-17T01:26:36;64.93;;;35.25;;
47737;SDS011;33502;47.182;27.506;2022-12-17T01:29:20;56.30;;;31.58;;
47737;SDS011;33502;47.182;27.506;2022-12-17T01:32:04;66.90;;;34.92;;
47737;SDS011;33502;47.182;27.506;2022-12-17T01:34:49;57.47;;;32.10;;
47737;SDS011;33502;47.182;27.506;2022-12-17T01:37:33;61.50;;;34.63;;
47737;SDS011;33502;47.182;27.506;2022-12-17T01:40:18;64.30;;;35.10;;
47737;SDS011;33502;47.182;27.506;2022-12-17T01:43:05;74.22;;;35.75;;
47737;SDS011;33502;47.182;27.506;2022-12-17T01:45:55;70.70;;;37.35;;
47737;SDS011;33502;47.182;27.506;2022-12-17T01:48:42;74.90;;;38.28;;
47737;SDS011;33502;47.182;27.506;2022-12-17T01:51:31;82.85;;;39.40;;
47737;SDS011;33502;47.182;27.506;2022-12-17T01:54:16;78.30;;;38.30;;
47737;SDS011;33502;47.182;27.506;2022-12-17T01:57:02;71.82;;;36.08;;
47737;SDS011;33502;47.182;27.506;2022-12-17T01:59:56;77.65;;;39.75;;
47737;SDS011;33502;47.182;27.506;2022-12-17T02:02:44;76.65;;;40.83;;
47737;SDS011;33502;47.182;27.506;2022-12-17T02:05:37;85.85;;;40.58;;
47737;SDS011;33502;47.182;27.506;2022-12-17T02:14:32;81.82;;;38.53;;
47737;SDS011;33502;47.182;27.506;2022-12-17T02:17:23;83.88;;;39.63;;
47737;SDS011;33502;47.182;27.506;2022-12-17T02:20:57;94.00;;;39.25;;
47737;SDS011;33502;47.182;27.506;2022-12-17T02:26:26;84.55;;;38.08;;
47737;SDS011;33502;47.182;27.506;2022-12-17T02:29:34;92.35;;;39.65;;
47737;SDS011;33502;47.182;27.506;2022-12-17T02:32:22;134.55;;;68.80;;
47737;SDS011;33502;47.182;27.506;2022-12-17T02:35:12;87.38;;;39.05;;
47737;SDS011;33502;47.182;27.506;2022-12-17T02:38:14;87.68;;;39.65;;
47737;SDS011;33502;47.182;27.506;2022-12-17T02:41:04;94.28;;;40.28;;
47737;SDS011;33502;47.182;27.506;2022-12-17T02:43:50;77.47;;;38.20;;
47737;SDS011;33502;47.182;27.506;2022-12-17T02:46:38;77.93;;;37.25;;
47737;SDS011;33502;47.182;27.506;2022-12-17T02:49:25;82.45;;;37.47;;
47737;SDS011;33502;47.182;27.506;2022-12-17T02:52:10;76.78;;;35.17;;
47737;SDS011;33502;47.182;27.506;2022-12-17T02:54:56;78.85;;;35.83;;
47737;SDS011;33502;47.182;27.506;2022-12-17T02:57:41;84.32;;;38.13;;
47737;SDS011;33502;47.182;27.506;2022-12-17T03:00:26;80.15;;;37.97;;
47737;SDS011;33502;47.182;27.506;2022-12-17T03:03:11;76.82;;;36.65;;
47737;SDS011;33502;47.182;27.506;2022-12-17T03:05:55;76.15;;;37.30;;
47737;SDS011;33502;47.182;27.506;2022-12-17T03:08:39;66.40;;;33.00;;
47737;SDS011;33502;47.182;27.506;2022-12-17T03:11:26;72.22;;;34.65;;
47737;SDS011;33502;47.182;27.506;2022-12-17T03:14:11;81.20;;;39.08;;
47737;SDS011;33502;47.182;27.506;2022-12-17T03:16:56;81.65;;;36.33;;
47737;SDS011;33502;47.182;27.506;2022-12-17T03:19:51;75.82;;;35.35;;
47737;SDS011;33502;47.182;27.506;2022-12-17T03:22:36;80.47;;;36.10;;
47737;SDS011;33502;47.182;27.506;2022-12-17T03:25:20;84.43;;;37.92;;
47737;SDS011;33502;47.182;27.506;2022-12-17T03:28:05;74.68;;;36.22;;
47737;SDS011;33502;47.182;27.506;2022-12-17T03:30:51;85.88;;;36.17;;
47737;SDS011;33502;47.182;27.506;2022-12-17T03:33:36;71.03;;;35.33;;
47737;SDS011;33502;47.182;27.506;2022-12-17T03:36:21;77.47;;;37.13;;
47737;SDS011;33502;47.182;27.506;2022-12-17T03:39:05;73.90;;;35.88;;
47737;SDS011;33502;47.182;27.506;2022-12-17T03:41:49;76.82;;;36.35;;
47737;SDS011;33502;47.182;27.506;2022-12-17T03:44:34;75.50;;;39.58;;
47737;SDS011;33502;47.182;27.506;2022-12-17T03:47:18;88.35;;;39.80;;
47737;SDS011;33502;47.182;27.506;2022-12-17T03:50:03;82.10;;;39.92;;
47737;SDS011;33502;47.182;27.506;2022-12-17T03:52:48;72.55;;;36.80;;
47737;SDS011;33502;47.182;27.506;2022-12-17T03:55:33;85.82;;;41.78;;
47737;SDS011;33502;47.182;27.506;2022-12-17T03:58:17;93.70;;;42.40;;
47737;SDS011;33502;47.182;27.506;2022-12-17T04:01:02;84.53;;;39.55;;
47737;SDS011;33502;47.182;27.506;2022-12-17T04:03:46;104.05;;;49.75;;
47737;SDS011;33502;47.182;27.506;2022-12-17T04:06:30;108.90;;;55.60;;
47737;SDS011;33502;47.182;27.506;2022-12-17T04:09:15;99.75;;;47.22;;
47737;SDS011;33502;47.182;27.506;2022-12-17T04:11:59;94.55;;;45.13;;
47737;SDS011;33502;47.182;27.506;2022-12-17T04:14:43;85.78;;;41.72;;
47737;SDS011;33502;47.182;27.506;2022-12-17T04:17:28;94.40;;;47.10;;
47737;SDS011;33502;47.182;27.506;2022-12-17T04:20:12;101.88;;;48.88;;
47737;SDS011;33502;47.182;27.506;2022-12-17T04:22:57;84.55;;;41.88;;
47737;SDS011;33502;47.182;27.506;2022-12-17T04:25:42;74.38;;;36.75;;
47737;SDS011;33502;47.182;27.506;2022-12-17T04:28:26;87.47;;;39.00;;
47737;SDS011;33502;47.182;27.506;2022-12-17T04:31:11;81.47;;;39.60;;
47737;SDS011;33502;47.182;27.506;2022-12-17T04:33:55;86.53;;;39.53;;
47737;SDS011;33502;47.182;27.506;2022-12-17T04:36:40;82.53;;;38.78;;
47737;SDS011;33502;47.182;27.506;2022-12-17T04:39:24;90.65;;;41.58;;
47737;SDS011;33502;47.182;27.506;2022-12-17T04:42:08;85.90;;;39.90;;
47737;SDS011;33502;47.182;27.506;2022-12-17T04:44:53;102.07;;;43.03;;
47737;SDS011;33502;47.182;27.506;2022-12-17T04:47:38;91.07;;;42.20;;
47737;SDS011;33502;47.182;27.506;2022-12-17T04:50:22;96.05;;;40.15;;
47737;SDS011;33502;47.182;27.506;2022-12-17T04:53:08;85.15;;;41.60;;
47737;SDS011;33502;47.182;27.506;2022-12-17T04:55:54;105.32;;;55.00;;
47737;SDS011;33502;47.182;27.506;2022-12-17T04:58:38;103.75;;;54.13;;
47737;SDS011;33502;47.182;27.506;2022-12-17T05:01:24;82.50;;;44.03;;
47737;SDS011;33502;47.182;27.506;2022-12-17T05:04:09;86.32;;;44.13;;
47737;SDS011;33502;47.182;27.506;2022-12-17T05:06:53;91.82;;;44.92;;
47737;SDS011;33502;47.182;27.506;2022-12-17T05:09:38;89.45;;;43.80;;
47737;SDS011;33502;47.182;27.506;2022-12-17T05:12:22;100.90;;;44.35;;
47737;SDS011;33502;47.182;27.506;2022-12-17T05:15:07;90.13;;;41.20;;
47737;SDS011;33502;47.182;27.506;2022-12-17T05:17:52;86.20;;;40.72;;
47737;SDS011;33502;47.182;27.506;2022-12-17T05:20:36;93.30;;;41.38;;
47737;SDS011;33502;47.182;27.506;2022-12-17T05:23:20;99.78;;;46.50;;
47737;SDS011;33502;47.182;27.506;2022-12-17T05:26:26;92.50;;;42.50;;
47737;SDS011;33502;47.182;27.506;2022-12-17T05:29:10;90.25;;;40.30;;
47737;SDS011;33502;47.182;27.506;2022-12-17T05:31:56;80.43;;;36.50;;
47737;SDS011;33502;47.182;27.506;2022-12-17T05:34:41;132.07;;;59.00;;
47737;SDS011;33502;47.182;27.506;2022-12-17T05:37:25;171.70;;;50.20;;
47737;SDS011;33502;47.182;27.506;2022-12-17T05:40:10;110.28;;;51.03;;
47737;SDS011;33502;47.182;27.506;2022-12-17T05:42:55;113.25;;;50.22;;
47737;SDS011;33502;47.182;27.506;2022-12-17T05:45:42;111.45;;;46.28;;
47737;SDS011;33502;47.182;27.506;2022-12-17T05:48:27;122.35;;;47.85;;
47737;SDS011;33502;47.182;27.506;2022-12-17T05:51:11;111.03;;;45.33;;
47737;SDS011;33502;47.182;27.506;2022-12-17T05:53:55;112.68;;;46.38;;
47737;SDS011;33502;47.182;27.506;2022-12-17T05:56:40;104.07;;;42.38;;
47737;SDS011;33502;47.182;27.506;2022-12-17T05:59:25;100.57;;;42.63;;
47737;SDS011;33502;47.182;27.506;2022-12-17T06:02:09;109.90;;;49.45;;
47737;SDS011;33502;47.182;27.506;2022-12-17T06:04:53;116.22;;;47.22;;
47737;SDS011;33502;47.182;27.506;2022-12-17T06:07:38;84.93;;;41.78;;
47737;SDS011;33502;47.182;27.506;2022-12-17T06:10:22;86.22;;;42.47;;
47737;SDS011;33502;47.182;27.506;2022-12-17T06:13:07;80.53;;;41.10;;
47737;SDS011;33502;47.182;27.506;2022-12-17T06:15:52;85.03;;;42.78;;
47737;SDS011;33502;47.182;27.506;2022-12-17T06:18:36;79.40;;;40.47;;
47737;SDS011;33502;47.182;27.506;2022-12-17T06:21:21;74.03;;;39.05;;
47737;SDS011;33502;47.182;27.506;2022-12-17T06:24:05;79.68;;;41.85;;
47737;SDS011;33502;47.182;27.506;2022-12-17T06:26:50;89.40;;;41.25;;
47737;SDS011;33502;47.182;27.506;2022-12-17T06:29:35;76.55;;;38.08;;
47737;SDS011;33502;47.182;27.506;2022-12-17T06:32:20;78.80;;;39.65;;
47737;SDS011;33502;47.182;27.506;2022-12-17T06:35:04;72.50;;;37.20;;
47737;SDS011;33502;47.182;27.506;2022-12-17T06:38:09;77.05;;;36.90;;
47737;SDS011;33502;47.182;27.506;2022-12-17T06:40:53;75.15;;;36.65;;
47737;SDS011;33502;47.182;27.506;2022-12-17T06:43:38;74.43;;;35.67;;
47737;SDS011;33502;47.182;27.506;2022-12-17T06:46:22;61.83;;;32.10;;
47737;SDS011;33502;47.182;27.506;2022-12-17T06:49:07;75.55;;;38.00;;
47737;SDS011;33502;47.182;27.506;2022-12-17T06:51:51;79.35;;;37.53;;
47737;SDS011;33502;47.182;27.506;2022-12-17T06:54:35;73.57;;;36.20;;
47737;SDS011;33502;47.182;27.506;2022-12-17T06:57:20;91.97;;;38.08;;
47737;SDS011;33502;47.182;27.506;2022-12-17T07:00:04;82.95;;;39.08;;
47737;SDS011;33502;47.182;27.506;2022-12-17T07:02:53;95.40;;;39.17;;
47737;SDS011;33502;47.182;27.506;2022-12-17T07:05:38;91.30;;;38.72;;
47737;SDS011;33502;47.182;27.506;2022-12-17T07:08:23;162.52;;;46.17;;
47737;SDS011;33502;47.182;27.506;2022-12-17T07:11:09;279.50;;;60.67;;
47737;SDS011;33502;47.182;27.506;2022-12-17T07:13:53;296.63;;;58.67;;
47737;SDS011;33502;47.182;27.506;2022-12-17T07:16:38;129.90;;;47.88;;
47737;SDS011;33502;47.182;27.506;2022-12-17T07:19:22;155.82;;;48.58;;
47737;SDS011;33502;47.182;27.506;2022-12-17T07:22:07;120.35;;;40.20;;
47737;SDS011;33502;47.182;27.506;2022-12-17T07:24:51;116.13;;;45.08;;
47737;SDS011;33502;47.182;27.506;2022-12-17T07:27:35;99.03;;;41.33;;
47737;SDS011;33502;47.182;27.506;2022-12-17T07:30:20;81.60;;;36.28;;
47737;SDS011;33502;47.182;27.506;2022-12-17T07:33:05;100.05;;;42.55;;
47737;SDS011;33502;47.182;27.506;2022-12-17T07:35:53;109.28;;;43.63;;
47737;SDS011;33502;47.182;27.506;2022-12-17T07:38:37;98.53;;;41.17;;
47737;SDS011;33502;47.182;27.506;2022-12-17T07:41:22;118.65;;;44.60;;
47737;SDS011;33502;47.182;27.506;2022-12-17T07:44:06;94.22;;;40.97;;
47737;SDS011;33502;47.182;27.506;2022-12-17T07:46:50;92.55;;;40.15;;
47737;SDS011;33502;47.182;27.506;2022-12-17T07:49:35;122.28;;;48.05;;
47737;SDS011;33502;47.182;27.506;2022-12-17T07:52:19;100.50;;;44.10;;
47737;SDS011;33502;47.182;27.506;2022-12-17T07:55:04;109.20;;;47.72;;
47737;SDS011;33502;47.182;27.506;2022-12-17T07:57:56;96.90;;;43.45;;
47737;SDS011;33502;47.182;27.506;2022-12-17T08:00:43;102.93;;;45.28;;
47737;SDS011;33502;47.182;27.506;2022-12-17T08:03:28;91.72;;;43.10;;
47737;SDS011;33502;47.182;27.506;2022-12-17T08:06:12;92.47;;;42.80;;
47737;SDS011;33502;47.182;27.506;2022-12-17T08:08:57;90.25;;;44.67;;
47737;SDS011;33502;47.182;27.506;2022-12-17T08:11:41;88.03;;;42.85;;
47737;SDS011;33502;47.182;27.506;2022-12-17T08:14:26;94.72;;;44.97;;
47737;SDS011;33502;47.182;27.506;2022-12-17T08:17:10;97.28;;;48.33;;
47737;SDS011;33502;47.182;27.506;2022-12-17T08:19:54;84.47;;;40.47;;
47737;SDS011;33502;47.182;27.506;2022-12-17T08:22:39;84.47;;;43.00;;
47737;SDS011;33502;47.182;27.506;2022-12-17T08:25:23;89.18;;;43.28;;
47737;SDS011;33502;47.182;27.506;2022-12-17T08:28:08;87.03;;;43.28;;
47737;SDS011;33502;47.182;27.506;2022-12-17T08:30:52;80.80;;;39.58;;
47737;SDS011;33502;47.182;27.506;2022-12-17T08:33:37;70.75;;;34.17;;
47737;SDS011;33502;47.182;27.506;2022-12-17T08:36:21;76.68;;;39.10;;
47737;SDS011;33502;47.182;27.506;2022-12-17T08:39:06;82.82;;;39.95;;
47737;SDS011;33502;47.182;27.506;2022-12-17T08:41:50;79.65;;;39.55;;
47737;SDS011;33502;47.182;27.506;2022-12-17T08:44:34;83.35;;;38.88;;
47737;SDS011;33502;47.182;27.506;2022-12-17T08:47:19;89.85;;;41.28;;
47737;SDS011;33502;47.182;27.506;2022-12-17T08:50:04;69.28;;;35.47;;
47737;SDS011;33502;47.182;27.506;2022-12-17T08:52:55;69.15;;;35.72;;
47737;SDS011;33502;47.182;27.506;2022-12-17T08:56:00;73.90;;;34.65;;
47737;SDS011;33502;47.182;27.506;2022-12-17T08:58:45;70.63;;;36.00;;
47737;SDS011;33502;47.182;27.506;2022-12-17T09:01:29;73.50;;;35.42;;
47737;SDS011;33502;47.182;27.506;2022-12-17T09:04:13;71.30;;;35.38;;
47737;SDS011;33502;47.182;27.506;2022-12-17T09:06:58;65.60;;;32.47;;
47737;SDS011;33502;47.182;27.506;2022-12-17T09:09:42;61.15;;;32.08;;
47737;SDS011;33502;47.182;27.506;2022-12-17T09:12:27;61.25;;;31.10;;
47737;SDS011;33502;47.182;27.506;2022-12-17T09:15:11;70.22;;;33.30;;
47737;SDS011;33502;47.182;27.506;2022-12-17T09:17:56;68.57;;;34.25;;
47737;SDS011;33502;47.182;27.506;2022-12-17T09:20:40;71.32;;;36.42;;
47737;SDS011;33502;47.182;27.506;2022-12-17T09:23:25;69.57;;;34.28;;
47737;SDS011;33502;47.182;27.506;2022-12-17T09:26:09;73.38;;;37.70;;
47737;SDS011;33502;47.182;27.506;2022-12-17T09:28:54;68.75;;;36.08;;
47737;SDS011;33502;47.182;27.506;2022-12-17T09:31:38;68.88;;;36.05;;
47737;SDS011;33502;47.182;27.506;2022-12-17T09:34:23;74.65;;;38.33;;
47737;SDS011;33502;47.182;27.506;2022-12-17T09:37:07;63.67;;;35.10;;
47737;SDS011;33502;47.182;27.506;2022-12-17T09:39:51;57.08;;;32.45;;
47737;SDS011;33502;47.182;27.506;2022-12-17T09:45:37;64.28;;;33.83;;
47737;SDS011;33502;47.182;27.506;2022-12-17T09:51:33;60.83;;;35.05;;
47737;SDS011;33502;47.182;27.506;2022-12-17T09:54:28;57.17;;;34.13;;
47737;SDS011;33502;47.182;27.506;2022-12-17T09:57:19;54.95;;;32.45;;
47737;SDS011;33502;47.182;27.506;2022-12-17T10:00:14;58.05;;;32.55;;
47737;SDS011;33502;47.182;27.506;2022-12-17T10:03:01;44.92;;;28.08;;
47737;SDS011;33502;47.182;27.506;2022-12-17T10:05:47;55.15;;;29.95;;
47737;SDS011;33502;47.182;27.506;2022-12-17T10:08:33;56.72;;;31.73;;
47737;SDS011;33502;47.182;27.506;2022-12-17T10:11:20;48.90;;;29.58;;
47737;SDS011;33502;47.182;27.506;2022-12-17T10:14:10;52.33;;;31.05;;
47737;SDS011;33502;47.182;27.506;2022-12-17T10:17:01;52.78;;;30.58;;
47737;SDS011;33502;47.182;27.506;2022-12-17T10:19:48;57.30;;;31.30;;
47737;SDS011;33502;47.182;27.506;2022-12-17T10:22:43;55.85;;;31.17;;
47737;SDS011;33502;47.182;27.506;2022-12-17T10:25:29;45.33;;;29.20;;
47737;SDS011;33502;47.182;27.506;2022-12-17T10:28:15;48.85;;;28.77;;
47737;SDS011;33502;47.182;27.506;2022-12-17T10:31:03;49.67;;;29.15;;
47737;SDS011;33502;47.182;27.506;2022-12-17T10:33:55;54.03;;;32.33;;
47737;SDS011;33502;47.182;27.506;2022-12-17T10:36:43;59.22;;;33.25;;
47737;SDS011;33502;47.182;27.506;2022-12-17T10:39:30;49.75;;;31.60;;
47737;SDS011;33502;47.182;27.506;2022-12-17T10:42:27;74.65;;;44.35;;
47737;SDS011;33502;47.182;27.506;2022-12-17T10:45:32;60.85;;;35.45;;
47737;SDS011;33502;47.182;27.506;2022-12-17T10:48:22;66.97;;;39.83;;
47737;SDS011;33502;47.182;27.506;2022-12-17T10:51:16;73.82;;;43.00;;
47737;SDS011;33502;47.182;27.506;2022-12-17T10:54:07;60.40;;;34.45;;
47737;SDS011;33502;47.182;27.506;2022-12-17T10:57:00;53.00;;;31.38;;
47737;SDS011;33502;47.182;27.506;2022-12-17T10:59:45;54.00;;;30.25;;
47737;SDS011;33502;47.182;27.506;2022-12-17T11:02:30;52.33;;;30.73;;
47737;SDS011;33502;47.182;27.506;2022-12-17T11:05:17;51.70;;;28.63;;
47737;SDS011;33502;47.182;27.506;2022-12-17T11:08:14;52.92;;;30.60;;
47737;SDS011;33502;47.182;27.506;2022-12-17T11:11:00;48.90;;;28.70;;
47737;SDS011;33502;47.182;27.506;2022-12-17T11:13:50;47.17;;;29.13;;
47737;SDS011;33502;47.182;27.506;2022-12-17T11:16:37;48.90;;;29.08;;
47737;SDS011;33502;47.182;27.506;2022-12-17T11:19:47;48.97;;;28.35;;
47737;SDS011;33502;47.182;27.506;2022-12-17T11:22:42;47.53;;;27.63;;
47737;SDS011;33502;47.182;27.506;2022-12-17T11:28:44;41.25;;;24.52;;
47737;SDS011;33502;47.182;27.506;2022-12-17T11:37:22;38.28;;;25.35;;
47737;SDS011;33502;47.182;27.506;2022-12-17T11:49:52;41.08;;;26.20;;
47737;SDS011;33502;47.182;27.506;2022-12-17T11:53:01;44.35;;;26.60;;
47737;SDS011;33502;47.182;27.506;2022-12-17T11:58:38;44.10;;;27.35;;
47737;SDS011;33502;47.182;27.506;2022-12-17T12:09:56;41.00;;;25.13;;
47737;SDS011;33502;47.182;27.506;2022-12-17T12:22:07;50.38;;;28.90;;
47737;SDS011;33502;47.182;27.506;2022-12-17T12:35:16;50.30;;;28.23;;
47737;SDS011;33502;47.182;27.506;2022-12-17T12:38:03;55.60;;;28.92;;
47737;SDS011;33502;47.182;27.506;2022-12-17T12:41:05;48.70;;;29.17;;
47737;SDS011;33502;47.182;27.506;2022-12-17T12:50:28;45.10;;;27.30;;
47737;SDS011;33502;47.182;27.506;2022-12-17T12:53:23;41.33;;;25.83;;
47737;SDS011;33502;47.182;27.506;2022-12-17T12:56:26;44.65;;;26.45;;
47737;SDS011;33502;47.182;27.506;2022-12-17T12:59:26;37.97;;;22.63;;
47737;SDS011;33502;47.182;27.506;2022-12-17T13:10:33;34.28;;;21.17;;
47737;SDS011;33502;47.182;27.506;2022-12-17T13:13:18;33.67;;;21.00;;
47737;SDS011;33502;47.182;27.506;2022-12-17T13:16:04;33.72;;;21.13;;
47737;SDS011;33502;47.182;27.506;2022-12-17T13:18:43;27.75;;;17.33;;
47737;SDS011;33502;47.182;27.506;2022-12-17T13:23:41;27.33;;;22.27;;
47737;SDS011;33502;47.182;27.506;2022-12-17T13:26:15;22.67;;;15.68;;
47737;SDS011;33502;47.182;27.506;2022-12-17T13:31:50;21.55;;;14.43;;
47737;SDS011;33502;47.182;27.506;2022-12-17T13:42:37;22.63;;;15.68;;
47737;SDS011;33502;47.182;27.506;2022-12-17T13:45:02;21.92;;;14.60;;
47737;SDS011;33502;47.182;27.506;2022-12-17T13:47:30;21.25;;;14.60;;
47737;SDS011;33502;47.182;27.506;2022-12-17T13:49:59;18.10;;;13.35;;
47737;SDS011;33502;47.182;27.506;2022-12-17T13:52:27;18.77;;;13.25;;
47737;SDS011;33502;47.182;27.506;2022-12-17T13:55:04;18.13;;;13.38;;
47737;SDS011;33502;47.182;27.506;2022-12-17T13:57:35;18.23;;;12.98;;
47737;SDS011;33502;47.182;27.506;2022-12-17T14:00:02;18.58;;;14.02;;
47737;SDS011;33502;47.182;27.506;2022-12-17T14:02:38;19.30;;;14.13;;
47737;SDS011;33502;47.182;27.506;2022-12-17T14:05:06;19.25;;;13.50;;
47737;SDS011;33502;47.182;27.506;2022-12-17T14:07:45;17.85;;;13.65;;
47737;SDS011;33502;47.182;27.506;2022-12-17T14:10:14;18.20;;;12.40;;
47737;SDS011;33502;47.182;27.506;2022-12-17T14:12:41;17.25;;;12.38;;
47737;SDS011;33502;47.182;27.506;2022-12-17T14:15:22;15.95;;;11.65;;
47737;SDS011;33502;47.182;27.506;2022-12-17T14:17:50;16.25;;;10.45;;
47737;SDS011;33502;47.182;27.506;2022-12-17T14:20:22;15.35;;;10.20;;
47737;SDS011;33502;47.182;27.506;2022-12-17T14:22:50;17.20;;;11.68;;
47737;SDS011;33502;47.182;27.506;2022-12-17T14:25:25;18.70;;;12.65;;
47737;SDS011;33502;47.182;27.506;2022-12-17T14:27:59;20.90;;;11.02;;
47737;SDS011;33502;47.182;27.506;2022-12-17T14:33:01;22.23;;;11.88;;
47737;SDS011;33502;47.182;27.506;2022-12-17T14:35:28;16.30;;;10.90;;
47737;SDS011;33502;47.182;27.506;2022-12-17T14:37:56;15.13;;;10.52;;
47737;SDS011;33502;47.182;27.506;2022-12-17T14:40:22;14.68;;;10.57;;
47737;SDS011;33502;47.182;27.506;2022-12-17T14:42:50;13.48;;;9.88;;
47737;SDS011;33502;47.182;27.506;2022-12-17T14:48:17;20.33;;;12.32;;
47737;SDS011;33502;47.182;27.506;2022-12-17T14:50:39;11.48;;;9.23;;
47737;SDS011;33502;47.182;27.506;2022-12-17T14:53:25;16.38;;;11.90;;
47737;SDS011;33502;47.182;27.506;2022-12-17T14:55:53;15.05;;;10.93;;
47737;SDS011;33502;47.182;27.506;2022-12-17T14:58:21;15.25;;;9.38;;
47737;SDS011;33502;47.182;27.506;2022-12-17T15:00:56;14.68;;;10.25;;
47737;SDS011;33502;47.182;27.506;2022-12-17T15:03:30;17.55;;;11.63;;
47737;SDS011;33502;47.182;27.506;2022-12-17T15:08:29;12.13;;;8.73;;
47737;SDS011;33502;47.182;27.506;2022-12-17T15:10:58;11.63;;;8.05;;
47737;SDS011;33502;47.182;27.506;2022-12-17T15:13:24;12.80;;;7.95;;
47737;SDS011;33502;47.182;27.506;2022-12-17T15:15:50;10.63;;;7.53;;
47737;SDS011;33502;47.182;27.506;2022-12-17T15:18:15;10.63;;;7.20;;
47737;SDS011;33502;47.182;27.506;2022-12-17T15:20:41;9.45;;;6.78;;
47737;SDS011;33502;47.182;27.506;2022-12-17T15:23:17;9.82;;;7.25;;
47737;SDS011;33502;47.182;27.506;2022-12-17T15:25:45;8.65;;;5.88;;
47737;SDS011;33502;47.182;27.506;2022-12-17T15:28:12;11.18;;;7.82;;
47737;SDS011;33502;47.182;27.506;2022-12-17T15:30:38;10.65;;;5.88;;
47737;SDS011;33502;47.182;27.506;2022-12-17T15:33:07;9.98;;;6.40;;
47737;SDS011;33502;47.182;27.506;2022-12-17T15:35:34;8.38;;;6.43;;
47737;SDS011;33502;47.182;27.506;2022-12-17T15:38:00;7.95;;;5.32;;
47737;SDS011;33502;47.182;27.506;2022-12-17T15:40:26;6.70;;;4.70;;
47737;SDS011;33502;47.182;27.506;2022-12-17T15:42:52;6.40;;;4.20;;
47737;SDS011;33502;47.182;27.506;2022-12-17T15:45:43;5.93;;;4.88;;
47737;SDS011;33502;47.182;27.506;2022-12-17T15:48:11;6.63;;;5.22;;
47737;SDS011;33502;47.182;27.506;2022-12-17T15:50:38;8.32;;;5.50;;
47737;SDS011;33502;47.182;27.506;2022-12-17T15:53:04;10.80;;;6.90;;
47737;SDS011;33502;47.182;27.506;2022-12-17T15:55:30;4.90;;;4.15;;
47737;SDS011;33502;47.182;27.506;2022-12-17T15:57:56;6.28;;;4.60;;
47737;SDS011;33502;47.182;27.506;2022-12-17T16:00:22;6.40;;;5.00;;
47737;SDS011;33502;47.182;27.506;2022-12-17T16:02:49;6.63;;;5.07;;
47737;SDS011;33502;47.182;27.506;2022-12-17T16:05:15;6.90;;;4.78;;
47737;SDS011;33502;47.182;27.506;2022-12-17T16:07:41;8.02;;;4.93;;
47737;SDS011;33502;47.182;27.506;2022-12-17T16:10:08;10.07;;;6.30;;
47737;SDS011;33502;47.182;27.506;2022-12-17T16:12:35;8.38;;;6.07;;
47737;SDS011;33502;47.182;27.506;2022-12-17T16:15:01;8.85;;;6.18;;
47737;SDS011;33502;47.182;27.506;2022-12-17T16:17:28;10.63;;;6.70;;
47737;SDS011;33502;47.182;27.506;2022-12-17T16:19:54;8.18;;;5.95;;
47737;SDS011;33502;47.182;27.506;2022-12-17T16:22:20;7.30;;;5.57;;
47737;SDS011;33502;47.182;27.506;2022-12-17T16:24:46;8.25;;;6.22;;
47737;SDS011;33502;47.182;27.506;2022-12-17T16:27:12;7.40;;;6.32;;
47737;SDS011;33502;47.182;27.506;2022-12-17T16:29:38;8.23;;;6.18;;
47737;SDS011;33502;47.182;27.506;2022-12-17T16:32:03;7.93;;;5.95;;
47737;SDS011;33502;47.182;27.506;2022-12-17T16:34:29;12.65;;;8.40;;
47737;SDS011;33502;47.182;27.506;2022-12-17T16:36:55;11.90;;;8.32;;
47737;SDS011;33502;47.182;27.506;2022-12-17T16:39:21;13.95;;;8.68;;
47737;SDS011;33502;47.182;27.506;2022-12-17T16:41:47;11.07;;;8.30;;
47737;SDS011;33502;47.182;27.506;2022-12-17T16:44:12;10.32;;;7.20;;
47737;SDS011;33502;47.182;27.506;2022-12-17T16:46:39;11.75;;;8.27;;
47737;SDS011;33502;47.182;27.506;2022-12-17T16:49:07;10.93;;;6.88;;
47737;SDS011;33502;47.182;27.506;2022-12-17T16:51:41;12.57;;;7.07;;
47737;SDS011;33502;47.182;27.506;2022-12-17T16:54:10;10.82;;;7.25;;
47737;SDS011;33502;47.182;27.506;2022-12-17T16:56:37;11.73;;;7.32;;
47737;SDS011;33502;47.182;27.506;2022-12-17T16:59:03;9.93;;;7.18;;
47737;SDS011;33502;47.182;27.506;2022-12-17T17:01:32;10.45;;;7.95;;
47737;SDS011;33502;47.182;27.506;2022-12-17T17:03:58;14.25;;;8.10;;
47737;SDS011;33502;47.182;27.506;2022-12-17T17:06:24;12.25;;;7.85;;
47737;SDS011;33502;47.182;27.506;2022-12-17T17:08:50;9.23;;;5.75;;
47737;SDS011;33502;47.182;27.506;2022-12-17T17:11:17;10.20;;;6.72;;
47737;SDS011;33502;47.182;27.506;2022-12-17T17:13:49;9.75;;;6.78;;
47737;SDS011;33502;47.182;27.506;2022-12-17T17:16:19;8.07;;;4.68;;
47737;SDS011;33502;47.182;27.506;2022-12-17T17:18:46;10.25;;;5.72;;